ADDS TAF Board (Experimental) INFO Settings
IDs: Format: Expanded Condensed

KLAS - Las Vegas/McCarran I, NV, US

Issued at 2040 UTC 29 Aug 2016
Updated at 2137 UTC 29 Aug 2016
Time2056Z 29/22Z 29/23Z 30/00Z 30/01Z 30/02Z 30/03Z 30/04Z 30/05Z 30/06Z 30/07Z 30/08Z 30/09Z 30/10Z
Type OBS PRVL PRVL PRVL PRVL PRVL PRVL PRVL PRVL PRVL PRVL PRVL PRVL PRVL
VIS 10 >6 >6 >6 >6 >6 >6 >6 >6 >6 >6 >6 >6 >6
CIG -- -- -- -- -- -- -- -- -- -- -- -- -- --
Cover FEW FEW FEW FEW FEW FEW FEW SKC SKC SKC SKC SKC SKC SKC
FltCat VFR VFR VFR VFR VFR VFR VFR VFR VFR VFR VFR VFR VFR VFR
WX -- -- -- -- -- -- -- -- -- -- -- -- -- --
WDir VRB 80 80 80 80 80 80 210 210 210 210 210 210 VRB
WSpd 3 6 6 6 6 6 6 6 6 6 6 6 6 5
WGst -- -- -- -- -- -- -- -- -- -- -- -- -- --
R01/19
XWnd VRB -5 -5 -5 -5 -5 -5 1 1 1 1 1 1 VRB
HWnd VRB 3 3 3 3 3 3 -6 -6 -6 -6 -6 -6 VRB
R07/25
XWnd VRB 1 1 1 1 1 1 -5 -5 -5 -5 -5 -5 VRB
HWnd VRB 6 6 6 6 6 6 -3 -3 -3 -3 -3 -3 VRB

Raw TAF
KLAS 292040Z 2921/3018 08006KT P6SM FEW120
  FM300400 21006KT P6SM SKC
  FM301000 VRB05KT P6SM SKC
  FM301700 07006KT P6SM SKC


Raw METAR
KLAS 292056Z VRB03KT 10SM FEW120 38/03 A2996 RMK AO2 SLP115 T03830028 58021
KLAS 291956Z 00000KT 10SM FEW120 37/04 A2999 RMK AO2 SLP125 T03720039
KLAS 291856Z 36004KT 10SM FEW120 36/05 A3000 RMK AO2 SLP129 T03560050

METAR Board
Radar Display
Forecast Discussion

TAF Board Legend

Potential Impact
Threat None Slight Moderate High
Visibility (sm) ≥5.1 5.1>X≥3 3>X≥1 <1
Ceiling (100 ft) ≥30.1 30.1>X≥10 10>X≥5 <5
Wind Speed (kt) <10 10≤X<20 20≤X<30 ≥30
Wind Gust (kt) <15 15≤X<25 25≤X<35 ≥35
Weather No Wx Reported VCTS,-TS,-FZRA,SN TS,FZRA +TS,+FZRA,+SN